createdAt,value
2023-06-07T00:04:18.695Z,78.48
2023-06-07T00:09:10.779Z,78.79
2023-06-07T00:14:04.278Z,76.83
2023-06-07T00:18:56.993Z,75.72
2023-06-07T00:23:49.040Z,73.98
2023-06-07T00:28:41.417Z,74.77
2023-06-07T00:33:33.847Z,76.27
2023-06-07T00:38:25.772Z,77.86
2023-06-07T00:43:17.982Z,78.41
2023-06-07T00:48:10.503Z,78.80
2023-06-07T00:53:04.183Z,79.31
2023-06-07T00:57:56.538Z,80.42
2023-06-07T01:02:50.574Z,81.31
2023-06-07T01:07:49.511Z,82.59
2023-06-07T01:12:45.262Z,82.99
2023-06-07T01:17:42.345Z,83.53
2023-06-07T01:22:34.813Z,84.06
2023-06-07T01:27:28.239Z,84.86
2023-06-07T01:32:20.622Z,85.79
2023-06-07T01:37:12.507Z,86.07
2023-06-07T01:42:07.188Z,86.56
2023-06-07T01:46:58.955Z,87.02
2023-06-07T01:51:50.652Z,87.77
2023-06-07T01:57:21.793Z,88.41
2023-06-07T02:02:25.510Z,89.18
2023-06-07T02:07:24.553Z,89.92
2023-06-07T02:12:18.833Z,90.58
2023-06-07T02:17:10.688Z,92.27
2023-06-07T02:22:02.650Z,93.29
2023-06-07T02:26:55.085Z,92.85
2023-06-07T02:31:50.047Z,92.80
2023-06-07T02:36:41.869Z,94.08
2023-06-07T02:41:34.250Z,94.63
2023-06-07T02:46:26.209Z,95.73
2023-06-07T02:51:18.259Z,96.11
2023-06-07T02:56:10.464Z,96.62
2023-06-07T03:01:03.123Z,97.37
2023-06-07T03:05:54.929Z,97.45
2023-06-07T03:10:46.661Z,98.54
2023-06-07T03:15:38.463Z,98.19
2023-06-07T03:20:31.002Z,100.00
2023-06-07T03:25:22.889Z,100.00
2023-06-07T03:30:14.860Z,100.00
2023-06-07T03:35:06.960Z,100.00
2023-06-07T03:39:58.744Z,100.00
2023-06-07T03:44:50.528Z,100.00
2023-06-07T03:49:43.285Z,100.00
2023-06-07T03:54:35.016Z,100.00
2023-06-07T03:59:27.302Z,95.65
2023-06-07T04:04:19.140Z,87.87
2023-06-07T04:09:10.964Z,80.90
2023-06-07T04:14:02.783Z,75.42
2023-06-07T04:18:54.485Z,70.10
2023-06-07T04:23:46.242Z,66.71
2023-06-07T04:28:39.167Z,62.25
2023-06-07T04:33:34.189Z,59.52
2023-06-07T04:38:26.877Z,56.41
2023-06-07T04:43:19.924Z,55.43
2023-06-07T04:48:14.297Z,54.29
2023-06-07T04:53:06.092Z,54.01
2023-06-07T04:58:01.315Z,50.36
2023-06-07T05:02:56.215Z,48.38
2023-06-07T05:07:48.325Z,47.02
2023-06-07T05:12:40.959Z,46.66
2023-06-07T05:17:34.043Z,48.27
2023-06-07T05:22:26.887Z,50.16
2023-06-07T05:27:20.230Z,47.58
2023-06-07T05:32:11.967Z,47.14
2023-06-07T05:37:06.521Z,44.65
2023-06-07T05:47:12.441Z,45.52
2023-06-07T05:52:12.686Z,46.26
2023-06-07T05:57:08.696Z,44.93
2023-06-07T06:12:33.208Z,46.78
2023-06-07T06:22:31.630Z,49.13
2023-06-07T06:37:41.826Z,47.48
2023-06-07T06:57:53.960Z,47.83
2023-06-07T07:02:45.897Z,47.81
2023-06-07T07:07:39.276Z,48.08
2023-06-07T07:12:31.003Z,46.10
2023-06-07T07:17:22.871Z,45.82
2023-06-07T07:22:14.630Z,46.84
2023-06-07T07:27:07.805Z,48.32
2023-06-07T07:31:59.804Z,49.57
2023-06-07T07:36:51.693Z,51.69
2023-06-07T07:41:44.486Z,49.93
2023-06-07T07:46:39.568Z,50.75
2023-06-07T07:51:31.320Z,50.52
2023-06-07T07:56:23.657Z,51.50
2023-06-07T08:01:21.624Z,51.33
2023-06-07T08:06:13.471Z,51.38
2023-06-07T08:11:06.684Z,49.44
2023-06-07T09:07:35.618Z,48.30
2023-06-07T09:54:07.747Z,43.51
2023-06-07T10:59:20.044Z,34.10
2023-06-07T11:04:35.744Z,32.82
2023-06-07T11:09:33.987Z,31.84
2023-06-07T11:30:46.596Z,30.95
2023-06-07T13:14:35.338Z,30.51
2023-06-07T13:29:42.635Z,27.71
2023-06-07T14:00:39.366Z,26.00
2023-06-07T14:05:39.188Z,21.93
2023-06-07T14:16:10.120Z,27.53
2023-06-07T14:21:04.001Z,25.81
2023-06-07T14:41:16.481Z,27.96
2023-06-07T15:01:46.506Z,28.86
2023-06-07T15:06:39.945Z,27.56
2023-06-07T15:16:40.294Z,29.65
2023-06-07T15:37:04.031Z,29.34
2023-06-07T15:41:55.916Z,28.78
2023-06-07T15:46:50.299Z,27.88
2023-06-07T15:51:53.056Z,28.13
2023-06-07T15:56:46.571Z,29.06
2023-06-07T16:01:46.284Z,28.73
2023-06-07T16:17:01.404Z,29.51
2023-06-07T16:32:06.557Z,29.77
2023-06-07T16:42:05.424Z,29.16
2023-06-07T16:46:58.190Z,29.09
2023-06-07T16:56:59.047Z,29.45
2023-06-07T17:06:59.788Z,29.81
2023-06-07T17:11:51.924Z,30.19
2023-06-07T17:21:54.134Z,29.48
2023-06-07T17:32:06.681Z,30.14
2023-06-07T17:42:10.219Z,29.79
2023-06-07T17:52:25.737Z,30.89
2023-06-07T17:57:17.560Z,30.51
2023-06-07T18:07:16.817Z,31.10
2023-06-07T18:12:14.160Z,31.75
2023-06-07T18:17:08.526Z,32.59
2023-06-07T18:22:01.246Z,33.04
2023-06-07T18:26:53.569Z,33.38
2023-06-07T18:31:46.523Z,34.29
2023-06-07T18:36:41.065Z,34.64
2023-06-07T18:41:32.800Z,35.66
2023-06-07T18:46:24.618Z,37.03
2023-06-07T18:51:16.478Z,37.53
2023-06-07T18:56:12.991Z,37.92
2023-06-07T19:01:07.025Z,38.58
2023-06-07T19:05:59.251Z,39.16
2023-06-07T19:15:56.730Z,39.80
2023-06-07T19:20:49.079Z,40.42
2023-06-07T19:25:41.474Z,40.84
2023-06-07T19:30:33.551Z,41.89
2023-06-07T19:35:28.591Z,42.26
2023-06-07T19:40:29.375Z,43.23
2023-06-07T19:45:21.527Z,43.63
2023-06-07T19:50:14.062Z,43.66
2023-06-07T19:55:06.574Z,44.06
2023-06-07T19:59:58.491Z,43.79
2023-06-07T20:04:50.427Z,44.02
2023-06-07T20:09:42.905Z,44.50
2023-06-07T20:14:36.771Z,44.75
2023-06-07T20:19:29.432Z,45.09
2023-06-07T20:24:21.268Z,45.24
2023-06-07T20:29:17.520Z,45.47
2023-06-07T20:34:10.774Z,45.78
2023-06-07T20:39:04.215Z,45.79
2023-06-07T20:43:57.731Z,45.66
2023-06-07T20:48:49.844Z,45.98
2023-06-07T20:53:43.113Z,46.33
2023-06-07T21:03:54.588Z,46.64
2023-06-07T21:08:51.875Z,46.79
2023-06-07T21:13:44.339Z,46.61
2023-06-07T21:18:36.158Z,47.02
2023-06-07T21:23:28.125Z,49.98
2023-06-07T21:28:20.064Z,52.51
2023-06-07T21:33:14.334Z,53.43
2023-06-07T21:38:06.300Z,54.63
2023-06-07T21:42:58.403Z,55.47
2023-06-07T21:47:50.818Z,56.37
2023-06-07T21:52:44.644Z,57.11
2023-06-07T21:57:39.173Z,57.33
2023-06-07T22:02:48.249Z,58.48
2023-06-07T22:07:40.651Z,58.54
2023-06-07T22:12:34.136Z,58.71
2023-06-07T22:17:27.395Z,58.84
2023-06-07T22:22:21.105Z,60.53
2023-06-07T22:32:22.539Z,59.28
2023-06-07T22:37:17.689Z,60.53
2023-06-07T22:42:09.659Z,61.00
2023-06-07T22:47:02.527Z,60.96
2023-06-07T22:51:54.915Z,60.79
2023-06-07T22:56:47.095Z,61.26
2023-06-07T23:01:43.088Z,61.30
2023-06-07T23:06:36.260Z,61.74
2023-06-07T23:16:36.422Z,63.58
2023-06-07T23:21:30.759Z,64.00
2023-06-07T23:26:23.877Z,64.85
2023-06-07T23:31:16.005Z,65.37
2023-06-07T23:36:08.847Z,66.47
2023-06-07T23:41:01.545Z,68.18
